createdAt,value
2022-12-14T00:01:56.142Z,17.27
2022-12-14T00:04:25.220Z,17.03
2022-12-14T00:06:54.067Z,17.90
2022-12-14T00:09:29.119Z,16.17
2022-12-14T00:12:00.262Z,14.33
2022-12-14T00:14:30.280Z,17.03
2022-12-14T00:16:59.509Z,16.23
2022-12-14T00:19:29.768Z,15.97
2022-12-14T00:21:58.543Z,15.33
2022-12-14T00:24:27.762Z,15.43
2022-12-14T00:26:57.158Z,15.90
2022-12-14T00:29:29.477Z,14.83
2022-12-14T00:31:58.080Z,16.00
2022-12-14T00:34:27.958Z,15.67
2022-12-14T00:36:57.478Z,16.33
2022-12-14T00:39:26.114Z,16.07
2022-12-14T00:41:55.296Z,14.80
2022-12-14T00:44:23.842Z,14.37
2022-12-14T00:46:54.775Z,14.20
2022-12-14T00:49:23.404Z,14.53
2022-12-14T00:51:52.336Z,14.43
2022-12-14T00:54:22.019Z,14.03
2022-12-14T00:56:50.743Z,14.10
2022-12-14T00:59:24.216Z,13.57
2022-12-14T01:01:57.071Z,15.10
2022-12-14T01:04:26.228Z,14.10
2022-12-14T01:06:55.432Z,13.77
2022-12-14T01:09:26.474Z,15.70
2022-12-14T01:11:55.387Z,14.80
2022-12-14T01:14:24.041Z,14.57
2022-12-14T01:16:52.535Z,13.33
2022-12-14T01:19:22.441Z,12.67
2022-12-14T01:21:50.891Z,14.13
2022-12-14T01:24:20.267Z,13.23
2022-12-14T01:26:48.682Z,12.77
2022-12-14T01:29:17.508Z,13.13
2022-12-14T01:31:48.640Z,12.63
2022-12-14T01:34:18.126Z,12.70
2022-12-14T01:36:48.123Z,12.10
2022-12-14T01:39:17.838Z,12.07
2022-12-14T01:41:49.557Z,11.33
2022-12-14T01:44:54.599Z,10.73
2022-12-14T01:47:31.501Z,11.10
2022-12-14T01:50:04.560Z,11.40
2022-12-14T01:52:39.985Z,11.33
2022-12-14T01:55:13.618Z,9.40
2022-12-14T01:57:48.910Z,9.20
2022-12-14T02:00:17.657Z,10.13
2022-12-14T02:02:50.051Z,9.23
2022-12-14T02:05:22.148Z,9.13
2022-12-14T02:07:55.641Z,9.27
2022-12-14T02:10:26.605Z,11.67
2022-12-14T02:13:01.302Z,10.77
2022-12-14T02:15:30.753Z,11.40
2022-12-14T02:17:59.603Z,10.10
2022-12-14T02:20:37.075Z,9.43
2022-12-14T02:23:38.996Z,9.33
2022-12-14T02:26:45.156Z,9.87
2022-12-14T02:29:47.325Z,9.63
2022-12-14T02:32:44.978Z,10.20
2022-12-14T02:35:23.032Z,8.77
2022-12-14T02:38:00.128Z,9.17
2022-12-14T02:40:37.027Z,9.70
2022-12-14T02:43:14.483Z,10.13
2022-12-14T02:45:49.321Z,11.10
2022-12-14T02:48:21.025Z,9.90
2022-12-14T02:50:57.804Z,10.87
2022-12-14T02:53:32.302Z,10.50
2022-12-14T02:56:05.784Z,9.63
2022-12-14T02:58:37.962Z,9.83
2022-12-14T03:01:12.291Z,10.07
2022-12-14T03:03:41.260Z,9.93
2022-12-14T03:06:26.323Z,10.80
2022-12-14T03:08:59.454Z,10.43
2022-12-14T03:11:34.643Z,10.70
2022-12-14T03:14:08.273Z,8.83
2022-12-14T03:16:42.514Z,9.53
2022-12-14T03:19:16.810Z,10.87
2022-12-14T03:21:48.234Z,11.50
2022-12-14T03:24:21.685Z,10.17
2022-12-14T03:26:54.559Z,10.17
2022-12-14T03:29:27.613Z,9.60
2022-12-14T03:31:59.819Z,8.53
2022-12-14T03:34:33.267Z,7.70
2022-12-14T03:37:06.676Z,8.80
2022-12-14T03:39:37.197Z,8.93
2022-12-14T03:42:16.417Z,9.37
2022-12-14T03:44:50.492Z,8.80
2022-12-14T03:47:38.866Z,8.03
2022-12-14T03:50:13.722Z,8.50
2022-12-14T03:52:46.455Z,8.10
2022-12-14T03:55:25.971Z,8.10
2022-12-14T03:58:28.047Z,8.07
2022-12-14T04:01:02.733Z,8.43
2022-12-14T04:03:43.616Z,8.43
2022-12-14T04:06:21.625Z,9.03
2022-12-14T04:08:54.487Z,8.93
2022-12-14T04:11:41.339Z,8.57
2022-12-14T04:14:32.718Z,9.23
2022-12-14T04:17:19.891Z,8.47
2022-12-14T04:19:54.677Z,7.43
2022-12-14T04:22:27.109Z,8.93
2022-12-14T04:25:18.518Z,9.30
2022-12-14T04:27:52.244Z,9.10
2022-12-14T04:30:19.814Z,9.27
2022-12-14T04:32:51.828Z,9.63
2022-12-14T04:35:25.491Z,9.90
2022-12-14T04:37:57.411Z,10.40
2022-12-14T04:40:30.653Z,9.80
2022-12-14T04:43:03.278Z,10.03
2022-12-14T04:45:36.223Z,8.67
2022-12-14T04:48:14.447Z,7.37
2022-12-14T04:50:49.135Z,9.87
2022-12-14T04:53:22.312Z,9.00
2022-12-14T04:55:55.725Z,8.60
2022-12-14T04:58:27.180Z,9.00
2022-12-14T05:01:13.011Z,9.17
2022-12-14T05:03:50.922Z,9.40
2022-12-14T05:06:25.872Z,8.60
2022-12-14T05:09:12.505Z,9.80
2022-12-14T05:11:53.714Z,9.53
2022-12-14T05:14:29.411Z,8.73
2022-12-14T05:17:02.322Z,8.73
2022-12-14T05:19:33.924Z,8.27
2022-12-14T05:22:08.213Z,9.80
2022-12-14T05:24:36.840Z,8.60
2022-12-14T05:27:05.984Z,9.20
2022-12-14T05:29:34.669Z,10.50
2022-12-14T05:32:03.500Z,10.23
2022-12-14T05:34:31.987Z,8.80
2022-12-14T05:37:00.663Z,11.20
2022-12-14T05:39:30.781Z,10.43
2022-12-14T05:41:59.238Z,10.27
2022-12-14T05:44:27.645Z,10.10
2022-12-14T05:46:56.351Z,9.40
2022-12-14T05:49:25.426Z,10.13
2022-12-14T05:51:53.965Z,9.23
2022-12-14T05:54:22.709Z,9.27
2022-12-14T05:56:53.002Z,10.17
2022-12-14T05:59:21.677Z,9.57
2022-12-14T06:01:51.395Z,10.33
2022-12-14T06:04:21.254Z,9.97
2022-12-14T06:06:50.666Z,9.87
2022-12-14T06:09:19.593Z,10.20
2022-12-14T06:11:50.108Z,10.17
2022-12-14T06:14:20.208Z,10.47
2022-12-14T06:16:49.122Z,10.93
2022-12-14T06:19:17.719Z,11.33
2022-12-14T06:21:46.454Z,10.77
2022-12-14T06:24:15.591Z,10.17
2022-12-14T06:26:44.132Z,10.00
2022-12-14T06:29:18.086Z,9.20
2022-12-14T06:31:49.279Z,8.00
2022-12-14T06:34:20.304Z,9.37
2022-12-14T06:36:50.772Z,10.10
2022-12-14T06:39:19.526Z,10.73
2022-12-14T06:41:51.909Z,9.70
2022-12-14T06:44:20.636Z,8.40
2022-12-14T06:46:50.608Z,9.43
2022-12-14T06:49:19.273Z,8.87
2022-12-14T06:51:48.110Z,8.60
2022-12-14T06:54:17.649Z,9.53
2022-12-14T06:56:48.380Z,9.77
2022-12-14T06:59:17.953Z,9.20
2022-12-14T07:01:49.795Z,8.80
2022-12-14T07:04:21.722Z,9.70
2022-12-14T07:06:50.363Z,8.87
2022-12-14T07:09:18.857Z,8.33
2022-12-14T07:11:47.270Z,9.20
2022-12-14T07:14:18.528Z,8.77
2022-12-14T07:16:48.744Z,8.67
2022-12-14T07:19:19.346Z,8.10
2022-12-14T07:21:47.920Z,9.23
2022-12-14T07:24:16.755Z,9.73
2022-12-14T07:26:45.238Z,9.53
2022-12-14T07:29:15.272Z,9.27
2022-12-14T07:31:43.939Z,9.03
2022-12-14T07:34:19.896Z,9.10
2022-12-14T07:36:51.245Z,9.97
2022-12-14T07:39:21.138Z,10.30
2022-12-14T07:41:50.839Z,9.77
2022-12-14T07:44:19.700Z,9.77
2022-12-14T07:46:48.722Z,10.10
2022-12-14T07:49:17.229Z,9.53
2022-12-14T07:51:47.089Z,10.57
2022-12-14T07:54:16.099Z,9.10
2022-12-14T07:56:45.405Z,10.07
2022-12-14T07:59:16.695Z,9.70
2022-12-14T08:01:46.256Z,10.77
2022-12-14T08:04:18.668Z,8.57
2022-12-14T08:06:49.920Z,9.53
2022-12-14T08:09:20.390Z,9.60
2022-12-14T08:11:49.460Z,9.67
2022-12-14T08:14:20.211Z,10.03
2022-12-14T08:16:50.026Z,9.93
2022-12-14T08:19:19.749Z,10.53
2022-12-14T08:21:50.179Z,10.50
2022-12-14T08:24:18.626Z,11.03
2022-12-14T08:26:49.360Z,9.27
2022-12-14T08:29:18.844Z,11.47
2022-12-14T08:31:47.858Z,10.10
2022-12-14T08:34:22.354Z,10.63
2022-12-14T08:36:52.313Z,10.93
2022-12-14T08:39:21.361Z,10.90
2022-12-14T08:41:49.822Z,10.40
2022-12-14T08:44:22.246Z,10.33
2022-12-14T08:46:50.892Z,11.17
2022-12-14T08:49:20.607Z,11.10
2022-12-14T08:51:53.948Z,10.10
2022-12-14T08:54:30.527Z,10.20
2022-12-14T08:56:59.850Z,10.80
2022-12-14T08:59:59.441Z,11.37
2022-12-14T09:02:17.700Z,10.80
2022-12-14T09:04:46.686Z,10.23
2022-12-14T09:07:15.228Z,9.93
2022-12-14T09:09:46.142Z,10.43
2022-12-14T09:12:15.076Z,10.50
2022-12-14T09:14:46.712Z,9.93
2022-12-14T09:17:18.645Z,10.77
2022-12-14T09:19:47.185Z,11.23
2022-12-14T09:22:15.946Z,10.03
2022-12-14T09:24:46.171Z,10.10
2022-12-14T09:27:15.355Z,11.10
2022-12-14T09:29:44.228Z,9.57
2022-12-14T09:32:15.546Z,10.40
2022-12-14T09:34:44.453Z,10.63
2022-12-14T09:37:16.478Z,10.80
2022-12-14T09:39:46.484Z,9.20
2022-12-14T09:42:35.769Z,9.90
2022-12-14T09:45:15.421Z,9.80
2022-12-14T09:47:52.401Z,8.87
2022-12-14T09:50:23.785Z,9.40
2022-12-14T09:52:54.991Z,9.57
2022-12-14T09:55:28.457Z,9.20
2022-12-14T09:58:01.692Z,10.17
2022-12-14T10:00:36.946Z,9.33
2022-12-14T10:03:25.227Z,9.50
2022-12-14T10:06:17.545Z,9.77
2022-12-14T10:08:54.756Z,9.70
2022-12-14T10:11:40.410Z,10.23
2022-12-14T10:14:27.626Z,10.57
2022-12-14T10:17:04.482Z,10.20
2022-12-14T10:19:47.330Z,8.77
2022-12-14T10:22:27.504Z,10.83
2022-12-14T10:25:09.312Z,10.67
2022-12-14T10:28:09.871Z,9.00
2022-12-14T10:30:49.234Z,9.63
2022-12-14T10:33:26.901Z,9.80
2022-12-14T10:36:02.527Z,9.90
2022-12-14T10:38:49.036Z,9.13
2022-12-14T10:41:27.970Z,9.67
2022-12-14T10:44:05.227Z,9.03
2022-12-14T10:46:46.183Z,11.93
2022-12-14T10:49:22.241Z,12.60
2022-12-14T10:51:59.798Z,15.87
2022-12-14T10:54:33.661Z,14.37
2022-12-14T10:57:09.515Z,13.30
2022-12-14T10:59:55.585Z,13.03
2022-12-14T11:02:31.559Z,11.37
2022-12-14T11:05:07.243Z,12.30
2022-12-14T11:07:40.742Z,11.80
2022-12-14T11:10:18.994Z,12.23
2022-12-14T11:13:01.187Z,12.53
2022-12-14T11:15:43.200Z,15.03
2022-12-14T11:18:29.296Z,15.00
2022-12-14T11:21:06.975Z,12.50
2022-12-14T11:23:42.527Z,12.00
2022-12-14T11:26:21.307Z,11.37
2022-12-14T11:28:52.989Z,12.27
2022-12-14T11:31:39.348Z,12.20
2022-12-14T11:34:25.699Z,11.53
2022-12-14T11:36:57.107Z,10.77
2022-12-14T11:39:27.528Z,10.57
2022-12-14T11:42:05.130Z,10.20
2022-12-14T11:44:41.808Z,11.97
2022-12-14T11:47:16.218Z,12.93
2022-12-14T11:49:49.740Z,11.80
2022-12-14T11:52:22.133Z,11.50
2022-12-14T11:55:12.972Z,10.80
2022-12-14T11:57:56.525Z,12.93
2022-12-14T12:00:30.050Z,11.03
2022-12-14T12:03:14.182Z,12.33
2022-12-14T12:05:45.169Z,11.00
2022-12-14T12:08:25.077Z,10.93
2022-12-14T12:11:01.905Z,11.43
2022-12-14T12:13:37.084Z,11.33
2022-12-14T12:16:08.076Z,11.10
2022-12-14T12:18:46.434Z,10.60
2022-12-14T12:21:24.897Z,11.20
2022-12-14T12:24:07.109Z,10.27
2022-12-14T12:26:43.597Z,12.20
2022-12-14T12:29:28.751Z,9.60
2022-12-14T12:32:00.626Z,10.93
2022-12-14T12:34:36.631Z,11.73
2022-12-14T12:37:28.716Z,11.90
2022-12-14T12:40:06.020Z,12.63
2022-12-14T12:42:44.966Z,12.67
2022-12-14T12:45:22.553Z,11.37
2022-12-14T12:47:57.600Z,11.47
2022-12-14T12:50:32.564Z,11.40
2022-12-14T12:53:07.134Z,11.50
2022-12-14T12:55:54.659Z,12.63
2022-12-14T12:58:29.325Z,10.73
2022-12-14T13:01:06.787Z,10.10
2022-12-14T13:03:41.359Z,10.70
2022-12-14T13:06:23.886Z,11.77
2022-12-14T13:09:01.277Z,11.77
2022-12-14T13:11:38.562Z,11.67
2022-12-14T13:14:36.974Z,11.43
2022-12-14T13:17:16.305Z,12.57
2022-12-14T13:20:03.712Z,13.50
2022-12-14T13:22:47.842Z,12.87
2022-12-14T13:25:26.014Z,13.33
2022-12-14T13:28:45.661Z,12.73
2022-12-14T13:31:30.830Z,11.77
2022-12-14T13:34:22.885Z,13.33
2022-12-14T13:37:44.011Z,12.50
2022-12-14T13:40:42.021Z,11.73
2022-12-14T13:43:57.516Z,11.60
2022-12-14T13:46:29.669Z,10.53
2022-12-14T13:49:04.379Z,9.87
2022-12-14T13:51:42.680Z,9.73
2022-12-14T13:54:33.861Z,9.30
2022-12-14T13:57:16.836Z,10.57
2022-12-14T13:59:50.453Z,10.77
2022-12-14T14:02:45.289Z,10.07
2022-12-14T14:05:53.282Z,10.87
2022-12-14T14:08:46.672Z,10.00
2022-12-14T14:12:04.208Z,10.17
2022-12-14T14:14:54.591Z,10.17
2022-12-14T14:17:39.462Z,10.20
2022-12-14T14:20:43.004Z,9.60
2022-12-14T14:23:32.039Z,9.30
2022-12-14T14:26:30.610Z,9.53
2022-12-14T14:29:42.357Z,9.80
2022-12-14T14:32:43.331Z,10.30
2022-12-14T14:35:27.106Z,9.90
2022-12-14T14:38:07.909Z,9.43
2022-12-14T14:41:16.124Z,9.87
2022-12-14T14:43:53.090Z,9.80
2022-12-14T14:46:35.830Z,10.70
2022-12-14T14:49:25.759Z,10.13
2022-12-14T14:52:11.875Z,10.27
2022-12-14T14:58:03.747Z,9.00
2022-12-14T15:00:53.274Z,8.53
2022-12-14T15:03:38.110Z,7.90
2022-12-14T15:06:23.670Z,9.57
2022-12-14T15:09:08.671Z,9.80
2022-12-14T15:11:49.310Z,10.53
2022-12-14T15:14:46.703Z,8.80
2022-12-14T15:17:26.206Z,9.37
2022-12-14T15:19:59.420Z,8.20
2022-12-14T15:22:44.042Z,8.10
2022-12-14T15:25:27.040Z,8.23
2022-12-14T15:28:03.116Z,9.17
2022-12-14T15:30:38.522Z,8.30
2022-12-14T15:33:28.041Z,8.03
2022-12-14T15:36:09.741Z,8.93
2022-12-14T15:38:41.258Z,8.47
2022-12-14T15:41:18.425Z,9.03
2022-12-14T15:43:50.948Z,7.60
2022-12-14T15:46:30.583Z,8.43
2022-12-14T15:49:19.949Z,8.97
2022-12-14T15:51:49.757Z,8.90
2022-12-14T15:54:24.807Z,9.03
2022-12-14T15:56:58.521Z,9.93
2022-12-14T15:59:33.771Z,9.87
2022-12-14T16:02:16.319Z,9.13
2022-12-14T16:04:48.823Z,10.30
2022-12-14T16:07:25.546Z,10.50
2022-12-14T16:10:00.244Z,13.27
2022-12-14T16:12:44.241Z,13.20
2022-12-14T16:15:20.445Z,15.20
2022-12-14T16:17:57.528Z,15.67
2022-12-14T16:20:32.942Z,13.67
2022-12-14T16:23:05.393Z,14.50
2022-12-14T16:25:50.361Z,14.07
2022-12-14T16:28:32.578Z,14.73
2022-12-14T16:31:04.906Z,17.37
2022-12-14T16:33:36.380Z,16.57
2022-12-14T16:36:08.573Z,17.47
2022-12-14T16:38:43.492Z,21.70
2022-12-14T16:41:14.305Z,24.20
2022-12-14T16:43:55.866Z,20.67
2022-12-14T16:46:33.451Z,19.83
2022-12-14T16:49:23.945Z,17.90
2022-12-14T16:52:08.387Z,15.53
2022-12-14T16:54:43.174Z,14.40
2022-12-14T16:57:35.172Z,13.23
2022-12-14T17:00:09.035Z,15.73
2022-12-14T17:02:42.904Z,16.43
2022-12-14T17:05:19.938Z,17.87
2022-12-14T17:07:55.865Z,18.20
2022-12-14T17:10:31.754Z,18.53
2022-12-14T17:13:08.538Z,15.73
2022-12-14T17:15:53.917Z,16.63
2022-12-14T17:18:37.748Z,15.60
2022-12-14T17:21:13.088Z,15.07
2022-12-14T17:23:47.232Z,18.50
2022-12-14T17:26:22.943Z,18.63
2022-12-14T17:29:00.842Z,19.53
2022-12-14T17:31:47.815Z,18.70
2022-12-14T17:34:23.134Z,17.30
2022-12-14T17:36:55.908Z,17.87
2022-12-14T17:39:38.642Z,17.40
2022-12-14T17:42:17.132Z,21.87
2022-12-14T17:45:00.323Z,24.67
2022-12-14T17:47:36.613Z,22.17
2022-12-14T17:50:15.952Z,23.20
2022-12-14T17:52:56.177Z,23.53
2022-12-14T17:55:31.274Z,22.60
2022-12-14T17:58:22.934Z,18.83
2022-12-14T18:01:04.488Z,18.03
2022-12-14T18:03:40.541Z,20.13
2022-12-14T18:06:21.491Z,17.33
2022-12-14T18:08:53.273Z,16.90
2022-12-14T18:11:34.390Z,17.40
2022-12-14T18:14:09.963Z,17.57
2022-12-14T18:16:45.467Z,15.67
2022-12-14T18:19:16.805Z,15.43
2022-12-14T18:21:51.900Z,13.50
2022-12-14T18:24:26.042Z,10.23
2022-12-14T18:26:55.875Z,10.40
2022-12-14T18:29:46.809Z,9.77
2022-12-14T18:32:20.145Z,11.63
2022-12-14T18:34:58.388Z,10.10
2022-12-14T18:37:42.304Z,9.83
2022-12-14T18:40:18.332Z,8.87
2022-12-14T18:42:50.864Z,9.23
2022-12-14T18:45:28.292Z,9.40
2022-12-14T18:48:02.765Z,8.47
2022-12-14T18:50:41.031Z,8.70
2022-12-14T18:53:18.840Z,7.40
2022-12-14T18:55:59.272Z,7.47
2022-12-14T18:58:38.769Z,7.70
2022-12-14T19:01:18.672Z,7.47
2022-12-14T19:03:51.211Z,7.60
2022-12-14T19:06:45.014Z,7.30
2022-12-14T19:09:18.587Z,9.20
2022-12-14T19:11:53.137Z,8.57
2022-12-14T19:14:24.961Z,9.13
2022-12-14T19:16:59.487Z,8.50
2022-12-14T19:19:45.492Z,9.40
2022-12-14T19:22:19.786Z,11.63
2022-12-14T19:24:54.159Z,13.17
2022-12-14T19:28:15.416Z,11.23
2022-12-14T19:30:37.614Z,11.53
2022-12-14T19:33:12.517Z,9.97
2022-12-14T19:35:53.047Z,8.87
2022-12-14T19:38:22.757Z,8.70
2022-12-14T19:41:03.970Z,9.43
2022-12-14T19:43:41.388Z,8.30
2022-12-14T19:46:29.093Z,9.00
2022-12-14T19:49:01.588Z,8.23
2022-12-14T19:51:42.674Z,10.50
2022-12-14T19:54:15.659Z,10.17
2022-12-14T19:57:01.654Z,10.70
2022-12-14T19:59:34.153Z,15.03
2022-12-14T20:02:09.825Z,16.20
2022-12-14T20:04:48.871Z,17.17
2022-12-14T20:07:27.131Z,21.17
2022-12-14T20:09:59.603Z,24.33
2022-12-14T20:12:39.719Z,26.93
2022-12-14T20:15:25.129Z,28.20
2022-12-14T20:18:07.715Z,29.30
2022-12-14T20:20:40.364Z,40.57
2022-12-14T20:23:22.171Z,36.97
2022-12-14T20:26:27.707Z,34.80
2022-12-14T20:29:08.930Z,33.27
2022-12-14T20:31:47.142Z,17.53
2022-12-14T20:34:18.203Z,13.03
2022-12-14T20:36:49.376Z,12.03
2022-12-14T20:39:29.852Z,11.73
2022-12-14T20:42:11.588Z,11.07
2022-12-14T20:44:52.879Z,9.40
2022-12-14T20:47:25.108Z,8.33
2022-12-14T20:50:02.225Z,9.30
2022-12-14T20:52:32.911Z,10.43
2022-12-14T20:55:11.030Z,10.83
2022-12-14T20:57:48.702Z,11.87
2022-12-14T21:00:25.781Z,18.07
2022-12-14T21:02:59.300Z,19.63
2022-12-14T21:05:37.574Z,19.13
2022-12-14T21:08:10.668Z,24.70
2022-12-14T21:11:04.127Z,19.67
2022-12-14T21:13:42.519Z,19.00
2022-12-14T21:16:43.146Z,18.80
2022-12-14T21:19:21.873Z,16.40
2022-12-14T21:22:02.809Z,12.73
2022-12-14T21:25:01.751Z,13.43
2022-12-14T21:27:34.853Z,10.43
2022-12-14T21:30:07.845Z,9.20
2022-12-14T21:32:54.309Z,9.60
2022-12-14T21:35:30.732Z,9.37
2022-12-14T21:38:11.842Z,8.87
2022-12-14T21:41:02.283Z,11.10
2022-12-14T21:43:39.652Z,10.23
2022-12-14T21:46:15.792Z,14.40
2022-12-14T21:49:00.517Z,16.17
2022-12-14T21:51:49.376Z,16.20
2022-12-14T21:54:21.815Z,19.53
2022-12-14T21:57:08.237Z,20.83
2022-12-14T21:59:45.758Z,23.60
2022-12-14T22:02:26.452Z,23.30
2022-12-14T22:05:14.262Z,24.07
2022-12-14T22:07:55.980Z,27.90
2022-12-14T22:10:37.333Z,27.20
2022-12-14T22:13:15.577Z,25.20
2022-12-14T22:15:49.674Z,22.93
2022-12-14T22:18:22.032Z,24.80
2022-12-14T22:20:59.872Z,24.17
2022-12-14T22:23:41.244Z,24.57
2022-12-14T22:26:15.807Z,23.83
2022-12-14T22:28:46.998Z,24.33
2022-12-14T22:31:24.881Z,20.67
2022-12-14T22:33:55.368Z,17.00
2022-12-14T22:36:25.328Z,14.17
2022-12-14T22:39:06.036Z,13.07
2022-12-14T22:41:41.782Z,11.93
2022-12-14T22:44:14.438Z,11.27
2022-12-14T22:46:44.901Z,9.23
2022-12-14T22:49:18.938Z,8.43
2022-12-14T22:51:47.653Z,8.53
2022-12-14T22:54:22.673Z,8.40
2022-12-14T22:56:59.966Z,7.90
2022-12-14T22:59:38.003Z,7.40
2022-12-14T23:02:12.467Z,8.63
2022-12-14T23:04:42.762Z,8.63
2022-12-14T23:07:12.100Z,8.63
2022-12-14T23:10:00.266Z,9.37
2022-12-14T23:12:49.620Z,11.43
2022-12-14T23:15:36.287Z,12.63
2022-12-14T23:18:25.355Z,12.90
2022-12-14T23:21:13.949Z,15.03
2022-12-14T23:24:02.504Z,17.37
2022-12-14T23:26:49.232Z,17.07
2022-12-14T23:29:35.735Z,15.03
2022-12-14T23:32:24.284Z,12.40
2022-12-14T23:35:12.069Z,10.77
2022-12-14T23:37:58.045Z,9.53
2022-12-14T23:40:47.821Z,10.57
2022-12-14T23:43:36.082Z,12.67
2022-12-14T23:46:26.081Z,11.63
2022-12-14T23:49:16.006Z,13.57
2022-12-14T23:52:04.316Z,16.47
2022-12-14T23:54:50.638Z,19.07
2022-12-14T23:57:37.308Z,19.60
